sensor_id;sensor_type;location;lat;lon;timestamp;pressure;altitude;pressure_sealevel;temperature;humidity
64889;BME280;51386;53.082;8.816;2022-10-31T00:01:12;101851.84;;;20.71;58.76
64889;BME280;51386;53.082;8.816;2022-10-31T00:03:39;101846.72;;;20.69;58.54
64889;BME280;51386;53.082;8.816;2022-10-31T00:06:07;101853.09;;;20.68;58.64
64889;BME280;51386;53.082;8.816;2022-10-31T00:08:35;101854.34;;;20.66;59.13
64889;BME280;51386;53.082;8.816;2022-10-31T00:11:02;101861.75;;;20.64;58.58
64889;BME280;51386;53.082;8.816;2022-10-31T00:13:29;101853.34;;;20.60;58.53
64889;BME280;51386;53.082;8.816;2022-10-31T00:15:57;101872.28;;;20.59;58.69
64889;BME280;51386;53.082;8.816;2022-10-31T00:18:24;101879.09;;;20.55;59.09
64889;BME280;51386;53.082;8.816;2022-10-31T00:20:59;101878.91;;;20.50;59.14
64889;BME280;51386;53.082;8.816;2022-10-31T00:23:26;101872.72;;;20.49;59.50
64889;BME280;51386;53.082;8.816;2022-10-31T00:26:00;101883.03;;;20.46;59.60
64889;BME280;51386;53.082;8.816;2022-10-31T00:28:27;101889.41;;;20.45;59.08
64889;BME280;51386;53.082;8.816;2022-10-31T00:30:54;101885.13;;;20.44;59.65
64889;BME280;51386;53.082;8.816;2022-10-31T00:33:21;101888.81;;;20.43;59.47
64889;BME280;51386;53.082;8.816;2022-10-31T00:35:50;101890.88;;;20.41;59.29
64889;BME280;51386;53.082;8.816;2022-10-31T00:38:17;101899.91;;;20.40;59.57
64889;BME280;51386;53.082;8.816;2022-10-31T00:40:44;101896.63;;;20.38;59.43
64889;BME280;51386;53.082;8.816;2022-10-31T00:43:12;101901.19;;;20.37;59.60
64889;BME280;51386;53.082;8.816;2022-10-31T00:45:40;101902.81;;;20.38;60.17
64889;BME280;51386;53.082;8.816;2022-10-31T00:48:07;101902.22;;;20.36;60.23
64889;BME280;51386;53.082;8.816;2022-10-31T00:50:35;101910.22;;;20.36;59.80
64889;BME280;51386;53.082;8.816;2022-10-31T00:53:02;101908.56;;;20.35;59.61
64889;BME280;51386;53.082;8.816;2022-10-31T00:55:29;101914.16;;;20.34;60.15
64889;BME280;51386;53.082;8.816;2022-10-31T00:57:56;101918.88;;;20.32;60.23
64889;BME280;51386;53.082;8.816;2022-10-31T01:00:26;101923.63;;;20.30;59.97
64889;BME280;51386;53.082;8.816;2022-10-31T01:02:53;101922.81;;;20.29;59.74
64889;BME280;51386;53.082;8.816;2022-10-31T01:05:20;101926.72;;;20.27;60.25
64889;BME280;51386;53.082;8.816;2022-10-31T01:07:47;101926.09;;;20.24;60.12
64889;BME280;51386;53.082;8.816;2022-10-31T01:10:14;101928.78;;;20.24;59.83
64889;BME280;51386;53.082;8.816;2022-10-31T01:12:46;101930.84;;;20.22;60.32
64889;BME280;51386;53.082;8.816;2022-10-31T01:15:17;101934.50;;;20.21;60.38
64889;BME280;51386;53.082;8.816;2022-10-31T01:17:46;101939.47;;;20.24;60.34
64889;BME280;51386;53.082;8.816;2022-10-31T01:20:15;101936.81;;;20.24;60.43
64889;BME280;51386;53.082;8.816;2022-10-31T01:22:42;101942.34;;;20.23;60.47
64889;BME280;51386;53.082;8.816;2022-10-31T01:25:10;101948.94;;;20.20;60.23
64889;BME280;51386;53.082;8.816;2022-10-31T01:27:37;101947.28;;;20.19;60.02
64889;BME280;51386;53.082;8.816;2022-10-31T01:30:06;101948.50;;;20.17;60.32
64889;BME280;51386;53.082;8.816;2022-10-31T01:32:33;101939.03;;;20.14;60.74
64889;BME280;51386;53.082;8.816;2022-10-31T01:35:02;101942.72;;;20.13;60.35
64889;BME280;51386;53.082;8.816;2022-10-31T01:37:30;101941.31;;;20.11;60.23
64889;BME280;51386;53.082;8.816;2022-10-31T01:39:57;101940.06;;;20.07;60.61
64889;BME280;51386;53.082;8.816;2022-10-31T01:42:24;101935.34;;;20.02;60.71
64889;BME280;51386;53.082;8.816;2022-10-31T01:44:58;101935.16;;;19.97;60.20
64889;BME280;51386;53.082;8.816;2022-10-31T01:47:45;101937.00;;;19.90;60.54
64889;BME280;51386;53.082;8.816;2022-10-31T01:50:26;101940.72;;;19.89;60.48
64889;BME280;51386;53.082;8.816;2022-10-31T01:52:55;101943.38;;;19.89;60.88
64889;BME280;51386;53.082;8.816;2022-10-31T01:55:28;101948.09;;;19.87;60.94
64889;BME280;51386;53.082;8.816;2022-10-31T01:58:02;101951.81;;;19.86;60.85
64889;BME280;51386;53.082;8.816;2022-10-31T02:00:32;101935.78;;;19.86;60.80
64889;BME280;51386;53.082;8.816;2022-10-31T02:02:59;101943.19;;;19.84;60.53
64889;BME280;51386;53.082;8.816;2022-10-31T02:05:30;101937.84;;;19.84;61.01
64889;BME280;51386;53.082;8.816;2022-10-31T02:08:02;101945.25;;;19.82;60.89
64889;BME280;51386;53.082;8.816;2022-10-31T02:10:33;101948.53;;;19.84;60.95
64889;BME280;51386;53.082;8.816;2022-10-31T02:13:04;101954.69;;;19.85;60.70
64889;BME280;51386;53.082;8.816;2022-10-31T02:15:32;101951.81;;;19.86;60.73
64889;BME280;51386;53.082;8.816;2022-10-31T02:18:00;101953.03;;;19.90;60.95
64889;BME280;51386;53.082;8.816;2022-10-31T02:20:33;101954.69;;;19.91;61.10
64889;BME280;51386;53.082;8.816;2022-10-31T02:23:53;101958.16;;;19.85;60.75
64889;BME280;51386;53.082;8.816;2022-10-31T02:30:09;101958.38;;;19.90;61.37
64889;BME280;51386;53.082;8.816;2022-10-31T02:32:50;101957.13;;;19.99;60.89
64889;BME280;51386;53.082;8.816;2022-10-31T02:35:37;101955.91;;;20.02;60.61
64889;BME280;51386;53.082;8.816;2022-10-31T02:38:23;101950.38;;;20.03;60.81
64889;BME280;51386;53.082;8.816;2022-10-31T02:41:01;101958.81;;;20.00;60.31
64889;BME280;51386;53.082;8.816;2022-10-31T02:43:41;101961.25;;;19.95;60.93
64889;BME280;51386;53.082;8.816;2022-10-31T02:46:18;101960.03;;;19.91;60.53
64889;BME280;51386;53.082;8.816;2022-10-31T02:48:50;101970.72;;;19.91;61.05
64889;BME280;51386;53.082;8.816;2022-10-31T02:51:20;101963.31;;;19.93;60.57
64889;BME280;51386;53.082;8.816;2022-10-31T02:53:47;101961.66;;;19.92;60.97
64889;BME280;51386;53.082;8.816;2022-10-31T02:56:16;101955.09;;;19.95;61.31
64889;BME280;51386;53.082;8.816;2022-10-31T02:58:50;101955.69;;;19.97;61.22
64889;BME280;51386;53.082;8.816;2022-10-31T03:05:11;101956.97;;;19.94;61.29
64889;BME280;51386;53.082;8.816;2022-10-31T03:07:52;101964.16;;;19.94;60.27
64889;BME280;51386;53.082;8.816;2022-10-31T03:10:35;101973.81;;;19.82;60.89
64889;BME280;51386;53.082;8.816;2022-10-31T03:13:12;101970.72;;;19.72;60.78
64889;BME280;51386;53.082;8.816;2022-10-31T03:15:49;101969.06;;;19.64;61.07
64889;BME280;51386;53.082;8.816;2022-10-31T03:18:25;101978.72;;;19.58;61.06
64889;BME280;51386;53.082;8.816;2022-10-31T03:21:01;101980.97;;;19.55;60.97
64889;BME280;51386;53.082;8.816;2022-10-31T03:23:34;101982.41;;;19.51;61.41
64889;BME280;51386;53.082;8.816;2022-10-31T03:26:06;101982.56;;;19.43;61.41
64889;BME280;51386;53.082;8.816;2022-10-31T03:28:40;101991.56;;;19.35;61.69
64889;BME280;51386;53.082;8.816;2022-10-31T03:31:12;101991.16;;;19.32;61.64
64889;BME280;51386;53.082;8.816;2022-10-31T03:33:44;101987.03;;;19.29;61.43
64889;BME280;51386;53.082;8.816;2022-10-31T03:36:15;101989.47;;;19.24;61.86
64889;BME280;51386;53.082;8.816;2022-10-31T03:38:46;101991.09;;;19.19;61.74
64889;BME280;51386;53.082;8.816;2022-10-31T03:41:28;101996.81;;;19.09;62.03
64889;BME280;51386;53.082;8.816;2022-10-31T03:44:02;101992.69;;;19.07;62.11
64889;BME280;51386;53.082;8.816;2022-10-31T03:46:29;102004.78;;;19.03;62.11
64889;BME280;51386;53.082;8.816;2022-10-31T03:48:57;102009.91;;;18.98;62.74
64889;BME280;51386;53.082;8.816;2022-10-31T03:51:37;102009.03;;;18.90;62.64
64889;BME280;51386;53.082;8.816;2022-10-31T03:54:13;102009.44;;;18.87;62.45
64889;BME280;51386;53.082;8.816;2022-10-31T03:56:50;102013.91;;;18.80;62.60
64889;BME280;51386;53.082;8.816;2022-10-31T03:59:25;102001.59;;;18.79;62.71
64889;BME280;51386;53.082;8.816;2022-10-31T04:02:00;102001.59;;;18.79;62.89
64889;BME280;51386;53.082;8.816;2022-10-31T04:04:30;102009.41;;;18.81;62.91
64889;BME280;51386;53.082;8.816;2022-10-31T04:07:01;102006.56;;;18.82;62.99
64889;BME280;51386;53.082;8.816;2022-10-31T04:09:35;102009.22;;;18.82;62.91
64889;BME280;51386;53.082;8.816;2022-10-31T04:12:06;102015.19;;;18.84;62.74
64889;BME280;51386;53.082;8.816;2022-10-31T04:14:38;102012.69;;;18.83;62.66
64889;BME280;51386;53.082;8.816;2022-10-31T04:17:12;102017.63;;;18.79;62.51
64889;BME280;51386;53.082;8.816;2022-10-31T04:19:40;102022.13;;;18.79;62.96
64889;BME280;51386;53.082;8.816;2022-10-31T04:22:09;102028.88;;;18.75;63.18
64889;BME280;51386;53.082;8.816;2022-10-31T04:24:38;102022.84;;;18.66;62.96
64889;BME280;51386;53.082;8.816;2022-10-31T04:27:06;102030.63;;;18.61;62.96
64889;BME280;51386;53.082;8.816;2022-10-31T04:29:33;102025.25;;;18.55;63.06
64889;BME280;51386;53.082;8.816;2022-10-31T04:32:01;102015.78;;;18.52;63.08
64889;BME280;51386;53.082;8.816;2022-10-31T04:34:27;102020.75;;;18.55;63.42
64889;BME280;51386;53.082;8.816;2022-10-31T04:36:54;102029.00;;;18.60;63.50
64889;BME280;51386;53.082;8.816;2022-10-31T04:39:23;102024.47;;;18.61;63.11
64889;BME280;51386;53.082;8.816;2022-10-31T04:41:52;102025.69;;;18.58;62.86
64889;BME280;51386;53.082;8.816;2022-10-31T04:44:20;102036.31;;;18.52;63.05
64889;BME280;51386;53.082;8.816;2022-10-31T04:46:46;102031.47;;;18.41;63.31
64889;BME280;51386;53.082;8.816;2022-10-31T04:49:13;102021.34;;;18.30;63.55
64889;BME280;51386;53.082;8.816;2022-10-31T04:51:40;102027.66;;;18.22;63.72
64889;BME280;51386;53.082;8.816;2022-10-31T04:54:08;102026.13;;;18.13;63.94
64889;BME280;51386;53.082;8.816;2022-10-31T04:56:36;102032.63;;;18.04;64.10
64889;BME280;51386;53.082;8.816;2022-10-31T04:59:03;102035.41;;;17.96;64.61
64889;BME280;51386;53.082;8.816;2022-10-31T05:01:30;102021.84;;;17.91;64.74
64889;BME280;51386;53.082;8.816;2022-10-31T05:03:57;102025.91;;;17.87;64.99
64889;BME280;51386;53.082;8.816;2022-10-31T05:06:24;102019.31;;;17.83;64.99
64889;BME280;51386;53.082;8.816;2022-10-31T05:08:51;102028.50;;;17.80;65.19
64889;BME280;51386;53.082;8.816;2022-10-31T05:11:18;102022.50;;;17.78;65.17
64889;BME280;51386;53.082;8.816;2022-10-31T05:13:46;102016.75;;;17.75;65.26
64889;BME280;51386;53.082;8.816;2022-10-31T05:16:13;102025.97;;;17.72;65.36
64889;BME280;51386;53.082;8.816;2022-10-31T05:18:40;102012.63;;;17.72;65.52
64889;BME280;51386;53.082;8.816;2022-10-31T05:21:07;102015.09;;;17.74;65.52
64889;BME280;51386;53.082;8.816;2022-10-31T05:23:34;102009.41;;;17.77;65.44
64889;BME280;51386;53.082;8.816;2022-10-31T05:26:01;102001.66;;;17.82;65.35
64889;BME280;51386;53.082;8.816;2022-10-31T05:28:28;102013.22;;;17.89;65.14
64889;BME280;51386;53.082;8.816;2022-10-31T05:30:56;102006.47;;;17.93;65.43
64889;BME280;51386;53.082;8.816;2022-10-31T05:33:23;102012.69;;;18.00;65.00
64889;BME280;51386;53.082;8.816;2022-10-31T05:35:50;102007.97;;;18.02;65.05
64889;BME280;51386;53.082;8.816;2022-10-31T05:38:17;102010.91;;;18.07;65.13
64889;BME280;51386;53.082;8.816;2022-10-31T05:40:44;102005.81;;;18.12;65.08
64889;BME280;51386;53.082;8.816;2022-10-31T05:43:11;102006.06;;;18.17;64.71
64889;BME280;51386;53.082;8.816;2022-10-31T05:45:38;102004.47;;;18.22;64.61
64889;BME280;51386;53.082;8.816;2022-10-31T05:48:08;102018.44;;;18.24;64.39
64889;BME280;51386;53.082;8.816;2022-10-31T05:50:34;102020.91;;;18.26;64.18
64889;BME280;51386;53.082;8.816;2022-10-31T05:53:04;102010.88;;;18.28;64.11
64889;BME280;51386;53.082;8.816;2022-10-31T05:55:32;102016.84;;;18.30;64.13
64889;BME280;51386;53.082;8.816;2022-10-31T05:57:59;102014.81;;;18.32;63.79
64889;BME280;51386;53.082;8.816;2022-10-31T06:00:27;102017.47;;;18.32;63.84
64889;BME280;51386;53.082;8.816;2022-10-31T06:02:58;102018.47;;;18.31;63.36
64889;BME280;51386;53.082;8.816;2022-10-31T06:05:28;102017.22;;;18.27;62.93
64889;BME280;51386;53.082;8.816;2022-10-31T06:07:55;102017.97;;;18.21;62.92
64889;BME280;51386;53.082;8.816;2022-10-31T06:10:23;102029.19;;;18.10;62.63
64889;BME280;51386;53.082;8.816;2022-10-31T06:12:50;102026.63;;;18.02;63.03
64889;BME280;51386;53.082;8.816;2022-10-31T06:15:17;102038.91;;;17.96;62.87
64889;BME280;51386;53.082;8.816;2022-10-31T06:17:59;102031.41;;;17.85;62.90
64889;BME280;51386;53.082;8.816;2022-10-31T06:20:28;102040.16;;;17.79;63.11
64889;BME280;51386;53.082;8.816;2022-10-31T06:22:55;102037.59;;;17.71;63.05
64889;BME280;51386;53.082;8.816;2022-10-31T06:25:22;102033.25;;;17.64;63.26
64889;BME280;51386;53.082;8.816;2022-10-31T06:27:49;102038.31;;;17.58;63.41
64889;BME280;51386;53.082;8.816;2022-10-31T06:30:16;102037.47;;;17.58;63.77
64889;BME280;51386;53.082;8.816;2022-10-31T06:32:43;102046.94;;;17.61;63.68
64889;BME280;51386;53.082;8.816;2022-10-31T06:35:10;102051.91;;;17.64;64.02
64889;BME280;51386;53.082;8.816;2022-10-31T06:37:39;102047.00;;;17.67;63.64
64889;BME280;51386;53.082;8.816;2022-10-31T06:40:07;102044.34;;;17.67;63.47
64889;BME280;51386;53.082;8.816;2022-10-31T06:42:34;102051.13;;;17.70;63.51
64889;BME280;51386;53.082;8.816;2022-10-31T06:45:01;102052.59;;;17.72;63.71
64889;BME280;51386;53.082;8.816;2022-10-31T06:47:29;102050.81;;;17.79;63.77
64889;BME280;51386;53.082;8.816;2022-10-31T06:49:56;102050.50;;;17.89;63.80
64889;BME280;51386;53.082;8.816;2022-10-31T06:52:23;102055.31;;;18.00;63.64
64889;BME280;51386;53.082;8.816;2022-10-31T06:54:51;102055.19;;;18.08;63.29
64889;BME280;51386;53.082;8.816;2022-10-31T06:57:18;102048.72;;;18.17;62.94
64889;BME280;51386;53.082;8.816;2022-10-31T06:59:45;102060.25;;;18.24;62.83
64889;BME280;51386;53.082;8.816;2022-10-31T07:02:12;102055.81;;;18.31;62.31
64889;BME280;51386;53.082;8.816;2022-10-31T07:04:39;102056.06;;;18.36;62.07
64889;BME280;51386;53.082;8.816;2022-10-31T07:07:06;102064.94;;;18.43;62.11
64889;BME280;51386;53.082;8.816;2022-10-31T07:09:33;102062.53;;;18.48;61.85
64889;BME280;51386;53.082;8.816;2022-10-31T07:12:02;102074.47;;;18.52;61.69
64889;BME280;51386;53.082;8.816;2022-10-31T07:14:29;102071.63;;;18.54;61.56
64889;BME280;51386;53.082;8.816;2022-10-31T07:16:56;102084.31;;;18.52;61.56
64889;BME280;51386;53.082;8.816;2022-10-31T07:19:23;102082.22;;;18.47;61.36
64889;BME280;51386;53.082;8.816;2022-10-31T07:21:49;102086.84;;;18.39;61.51
64889;BME280;51386;53.082;8.816;2022-10-31T07:24:16;102087.16;;;18.29;61.91
64889;BME280;51386;53.082;8.816;2022-10-31T07:26:43;102080.31;;;18.20;61.99
64889;BME280;51386;53.082;8.816;2022-10-31T07:29:13;102075.00;;;18.20;62.47
64889;BME280;51386;53.082;8.816;2022-10-31T07:31:40;102075.88;;;18.27;62.91
64889;BME280;51386;53.082;8.816;2022-10-31T07:34:07;102083.34;;;18.38;62.76
64889;BME280;51386;53.082;8.816;2022-10-31T07:36:34;102075.50;;;18.51;62.89
64889;BME280;51386;53.082;8.816;2022-10-31T07:39:02;102076.63;;;18.63;62.40
64889;BME280;51386;53.082;8.816;2022-10-31T07:41:29;102074.63;;;18.72;61.79
64889;BME280;51386;53.082;8.816;2022-10-31T07:43:56;102069.31;;;18.78;61.58
64889;BME280;51386;53.082;8.816;2022-10-31T07:46:24;102078.00;;;18.87;61.91
64889;BME280;51386;53.082;8.816;2022-10-31T07:48:51;102077.22;;;18.93;61.34
64889;BME280;51386;53.082;8.816;2022-10-31T07:51:18;102068.22;;;19.01;61.04
64889;BME280;51386;53.082;8.816;2022-10-31T07:53:45;102072.97;;;19.05;60.67
64889;BME280;51386;53.082;8.816;2022-10-31T07:56:12;102072.38;;;19.10;60.71
64889;BME280;51386;53.082;8.816;2022-10-31T07:58:39;102079.59;;;19.16;60.25
64889;BME280;51386;53.082;8.816;2022-10-31T08:01:06;102081.47;;;19.22;60.07
64889;BME280;51386;53.082;8.816;2022-10-31T08:03:34;102087.47;;;19.30;59.75
64889;BME280;51386;53.082;8.816;2022-10-31T08:06:01;102083.84;;;19.38;59.95
64889;BME280;51386;53.082;8.816;2022-10-31T08:08:28;102077.47;;;19.39;59.04
64889;BME280;51386;53.082;8.816;2022-10-31T08:11:00;102082.34;;;19.35;58.65
64889;BME280;51386;53.082;8.816;2022-10-31T08:13:27;102077.19;;;19.27;58.78
64889;BME280;51386;53.082;8.816;2022-10-31T08:15:54;102078.19;;;19.20;58.85
64889;BME280;51386;53.082;8.816;2022-10-31T08:18:22;102070.16;;;19.13;58.72
64889;BME280;51386;53.082;8.816;2022-10-31T08:20:53;102080.00;;;19.13;59.39
64889;BME280;51386;53.082;8.816;2022-10-31T08:23:20;102078.56;;;19.17;58.95
64889;BME280;51386;53.082;8.816;2022-10-31T08:25:47;102074.09;;;19.24;59.72
64889;BME280;51386;53.082;8.816;2022-10-31T08:28:14;102072.88;;;19.33;59.39
64889;BME280;51386;53.082;8.816;2022-10-31T08:30:42;102071.31;;;19.38;58.91
64889;BME280;51386;53.082;8.816;2022-10-31T08:33:12;102072.56;;;19.42;58.71
64889;BME280;51386;53.082;8.816;2022-10-31T08:35:40;102073.78;;;19.40;58.53
64889;BME280;51386;53.082;8.816;2022-10-31T08:38:10;102077.47;;;19.39;58.22
64889;BME280;51386;53.082;8.816;2022-10-31T08:40:38;102070.09;;;19.41;58.68
64889;BME280;51386;53.082;8.816;2022-10-31T08:43:14;102080.38;;;19.44;57.98
64889;BME280;51386;53.082;8.816;2022-10-31T08:45:43;102071.31;;;19.45;58.28
64889;BME280;51386;53.082;8.816;2022-10-31T08:48:12;102073.81;;;19.46;58.40
64889;BME280;51386;53.082;8.816;2022-10-31T08:50:40;102073.84;;;19.53;58.32
64889;BME280;51386;53.082;8.816;2022-10-31T08:53:12;102069.72;;;19.57;58.13
64889;BME280;51386;53.082;8.816;2022-10-31T08:55:41;102072.22;;;19.65;57.67
64889;BME280;51386;53.082;8.816;2022-10-31T08:58:12;102079.84;;;19.68;57.50
64889;BME280;51386;53.082;8.816;2022-10-31T09:00:40;102074.31;;;19.70;56.90
64889;BME280;51386;53.082;8.816;2022-10-31T09:03:13;102073.88;;;19.66;56.78
64889;BME280;51386;53.082;8.816;2022-10-31T09:05:41;102071.00;;;19.61;56.70
64889;BME280;51386;53.082;8.816;2022-10-31T09:08:10;102066.44;;;19.55;57.12
64889;BME280;51386;53.082;8.816;2022-10-31T09:10:43;102074.06;;;19.58;57.70
64889;BME280;51386;53.082;8.816;2022-10-31T09:13:13;102067.50;;;19.67;57.55
64889;BME280;51386;53.082;8.816;2022-10-31T09:15:43;102067.34;;;19.88;57.80
64889;BME280;51386;53.082;8.816;2022-10-31T09:18:13;102070.25;;;20.06;57.49
64889;BME280;51386;53.082;8.816;2022-10-31T09:20:42;102074.81;;;20.25;56.73
64889;BME280;51386;53.082;8.816;2022-10-31T09:23:13;102069.09;;;20.42;56.75
64889;BME280;51386;53.082;8.816;2022-10-31T09:25:41;102061.63;;;20.57;56.58
64889;BME280;51386;53.082;8.816;2022-10-31T09:28:19;102066.16;;;20.69;56.21
64889;BME280;51386;53.082;8.816;2022-10-31T09:30:48;102071.50;;;20.76;55.51
64889;BME280;51386;53.082;8.816;2022-10-31T09:33:16;102059.16;;;20.75;55.71
64889;BME280;51386;53.082;8.816;2022-10-31T09:35:43;102056.06;;;20.71;55.80
64889;BME280;51386;53.082;8.816;2022-10-31T09:38:14;102060.38;;;20.66;55.49
64889;BME280;51386;53.082;8.816;2022-10-31T09:40:44;102060.22;;;20.61;56.04
64889;BME280;51386;53.082;8.816;2022-10-31T09:43:22;102059.56;;;20.59;55.53
64889;BME280;51386;53.082;8.816;2022-10-31T09:46:01;102056.28;;;20.70;55.62
64889;BME280;51386;53.082;8.816;2022-10-31T09:48:44;102051.72;;;20.83;55.55
64889;BME280;51386;53.082;8.816;2022-10-31T09:51:18;102055.97;;;21.04;55.31
64889;BME280;51386;53.082;8.816;2022-10-31T09:53:53;102059.88;;;21.21;55.06
64889;BME280;51386;53.082;8.816;2022-10-31T09:56:23;102052.81;;;21.33;55.14
64889;BME280;51386;53.082;8.816;2022-10-31T09:58:56;102051.91;;;21.52;54.53
64889;BME280;51386;53.082;8.816;2022-10-31T10:01:41;102052.94;;;21.83;53.81
64889;BME280;51386;53.082;8.816;2022-10-31T10:04:36;102050.19;;;22.27;53.21
64889;BME280;51386;53.082;8.816;2022-10-31T10:07:19;102045.22;;;22.73;52.64
64889;BME280;51386;53.082;8.816;2022-10-31T10:09:49;102037.94;;;22.99;51.44
64889;BME280;51386;53.082;8.816;2022-10-31T10:12:29;102037.03;;;23.05;51.03
64889;BME280;51386;53.082;8.816;2022-10-31T10:15:25;102041.59;;;23.04;50.75
64889;BME280;51386;53.082;8.816;2022-10-31T10:18:04;102046.50;;;23.07;50.87
64889;BME280;51386;53.082;8.816;2022-10-31T10:20:43;102044.66;;;23.08;50.75
64889;BME280;51386;53.082;8.816;2022-10-31T10:23:35;102041.66;;;22.98;50.73
64889;BME280;51386;53.082;8.816;2022-10-31T10:26:17;102052.50;;;22.91;50.84
64889;BME280;51386;53.082;8.816;2022-10-31T10:28:50;102054.44;;;22.84;50.88
64889;BME280;51386;53.082;8.816;2022-10-31T10:31:24;102055.16;;;22.73;51.11
64889;BME280;51386;53.082;8.816;2022-10-31T10:34:17;102042.50;;;22.55;51.28
64889;BME280;51386;53.082;8.816;2022-10-31T10:36:51;102035.91;;;22.51;51.77
64889;BME280;51386;53.082;8.816;2022-10-31T10:39:25;102047.97;;;22.42;51.79
64889;BME280;51386;53.082;8.816;2022-10-31T10:41:58;102051.31;;;22.38;52.10
64889;BME280;51386;53.082;8.816;2022-10-31T10:44:48;102047.22;;;22.35;52.09
64889;BME280;51386;53.082;8.816;2022-10-31T10:47:41;102045.59;;;22.34;52.52
64889;BME280;51386;53.082;8.816;2022-10-31T10:50:15;102039.34;;;22.58;52.37
64889;BME280;51386;53.082;8.816;2022-10-31T10:52:54;102041.34;;;22.87;51.90
64889;BME280;51386;53.082;8.816;2022-10-31T10:55:36;102045.25;;;23.10;51.41
64889;BME280;51386;53.082;8.816;2022-10-31T10:58:10;102039.00;;;23.27;51.25
64889;BME280;51386;53.082;8.816;2022-10-31T11:00:41;102034.34;;;23.41;50.67
64889;BME280;51386;53.082;8.816;2022-10-31T11:03:09;102028.28;;;23.45;50.49
64889;BME280;51386;53.082;8.816;2022-10-31T11:05:41;102029.84;;;23.53;50.28
64889;BME280;51386;53.082;8.816;2022-10-31T11:08:24;102014.97;;;23.50;49.93
64889;BME280;51386;53.082;8.816;2022-10-31T11:10:59;102022.69;;;23.58;50.04
64889;BME280;51386;53.082;8.816;2022-10-31T11:13:30;102017.13;;;23.60;49.38
64889;BME280;51386;53.082;8.816;2022-10-31T11:16:02;102026.53;;;23.51;49.74
64889;BME280;51386;53.082;8.816;2022-10-31T11:18:34;102029.56;;;23.43;50.20
64889;BME280;51386;53.082;8.816;2022-10-31T11:21:03;102024.31;;;23.30;49.49
64889;BME280;51386;53.082;8.816;2022-10-31T11:23:32;102031.22;;;23.08;50.09
64889;BME280;51386;53.082;8.816;2022-10-31T11:26:03;102022.22;;;22.84;50.56
64889;BME280;51386;53.082;8.816;2022-10-31T11:28:33;102020.19;;;22.55;51.15
64889;BME280;51386;53.082;8.816;2022-10-31T11:31:08;102016.88;;;22.35;51.83
64889;BME280;51386;53.082;8.816;2022-10-31T11:33:45;102019.25;;;22.24;52.05
64889;BME280;51386;53.082;8.816;2022-10-31T11:36:18;102017.84;;;22.22;52.06
64889;BME280;51386;53.082;8.816;2022-10-31T11:38:48;102008.97;;;22.21;52.43
64889;BME280;51386;53.082;8.816;2022-10-31T11:41:18;102006.28;;;22.21;52.65
64889;BME280;51386;53.082;8.816;2022-10-31T11:43:52;102004.41;;;22.22;52.81
64889;BME280;51386;53.082;8.816;2022-10-31T11:46:28;101999.31;;;22.14;52.76
64889;BME280;51386;53.082;8.816;2022-10-31T11:48:57;101993.03;;;22.02;53.04
64889;BME280;51386;53.082;8.816;2022-10-31T11:51:28;101993.31;;;21.94;53.22
64889;BME280;51386;53.082;8.816;2022-10-31T11:53:59;101983.84;;;21.91;53.23
64889;BME280;51386;53.082;8.816;2022-10-31T11:56:39;101986.53;;;21.91;53.40
64889;BME280;51386;53.082;8.816;2022-10-31T11:59:21;101986.56;;;21.85;53.80
64889;BME280;51386;53.082;8.816;2022-10-31T12:01:50;101989.06;;;21.80;53.65
64889;BME280;51386;53.082;8.816;2022-10-31T12:04:23;101980.50;;;21.65;54.08
64889;BME280;51386;53.082;8.816;2022-10-31T12:06:52;101982.19;;;21.59;54.81
64889;BME280;51386;53.082;8.816;2022-10-31T12:09:22;101985.88;;;21.65;54.67
64889;BME280;51386;53.082;8.816;2022-10-31T12:12:21;101977.56;;;21.73;54.74
64889;BME280;51386;53.082;8.816;2022-10-31T12:15:05;101986.56;;;21.85;54.71
64889;BME280;51386;53.082;8.816;2022-10-31T12:17:45;101983.25;;;21.83;55.05
64889;BME280;51386;53.082;8.816;2022-10-31T12:20:25;101986.97;;;21.82;54.30
64889;BME280;51386;53.082;8.816;2022-10-31T12:23:03;101977.72;;;21.78;54.78
64889;BME280;51386;53.082;8.816;2022-10-31T12:25:45;101974.88;;;21.73;54.54
64889;BME280;51386;53.082;8.816;2022-10-31T12:28:45;101970.22;;;21.62;54.72
64889;BME280;51386;53.082;8.816;2022-10-31T12:31:40;101959.19;;;21.45;55.11
64889;BME280;51386;53.082;8.816;2022-10-31T12:34:52;101960.94;;;21.26;55.74
64889;BME280;51386;53.082;8.816;2022-10-31T12:37:44;101961.19;;;21.25;55.90
64889;BME280;51386;53.082;8.816;2022-10-31T12:40:43;101964.50;;;21.14;55.89
64889;BME280;51386;53.082;8.816;2022-10-31T12:43:33;101952.00;;;21.08;56.14
64889;BME280;51386;53.082;8.816;2022-10-31T12:46:04;101955.22;;;21.16;55.77
64889;BME280;51386;53.082;8.816;2022-10-31T12:49:12;101942.91;;;21.15;56.41
64889;BME280;51386;53.082;8.816;2022-10-31T12:51:54;101941.19;;;21.21;56.05
64889;BME280;51386;53.082;8.816;2022-10-31T12:54:47;101925.91;;;21.28;56.17
64889;BME280;51386;53.082;8.816;2022-10-31T12:57:27;101922.38;;;21.34;55.97
64889;BME280;51386;53.082;8.816;2022-10-31T13:00:02;101918.66;;;21.35;55.52
64889;BME280;51386;53.082;8.816;2022-10-31T13:02:36;101915.78;;;21.36;55.90
64889;BME280;51386;53.082;8.816;2022-10-31T13:05:17;101904.88;;;21.31;55.61
64889;BME280;51386;53.082;8.816;2022-10-31T13:07:53;101897.88;;;21.30;55.57
64889;BME280;51386;53.082;8.816;2022-10-31T13:10:28;101892.50;;;21.30;55.50
64889;BME280;51386;53.082;8.816;2022-10-31T13:13:05;101891.38;;;21.20;56.10
64889;BME280;51386;53.082;8.816;2022-10-31T13:15:46;101888.97;;;21.05;55.91
64889;BME280;51386;53.082;8.816;2022-10-31T13:18:27;101893.34;;;20.93;56.75
64889;BME280;51386;53.082;8.816;2022-10-31T13:21:03;101880.81;;;20.87;57.09
64889;BME280;51386;53.082;8.816;2022-10-31T13:23:35;101872.16;;;20.85;57.08